createdAt,value
2022-11-27T00:00:00.414Z,12.03
2022-11-27T00:02:27.413Z,13.67
2022-11-27T00:04:54.369Z,12.87
2022-11-27T00:07:21.387Z,11.83
2022-11-27T00:09:48.331Z,10.77
2022-11-27T00:12:15.277Z,12.70
2022-11-27T00:14:42.149Z,14.17
2022-11-27T00:17:09.102Z,12.80
2022-11-27T00:19:35.996Z,11.57
2022-11-27T00:22:02.836Z,12.03
2022-11-27T00:24:29.833Z,13.10
2022-11-27T00:26:56.775Z,13.17
2022-11-27T00:29:23.682Z,12.83
2022-11-27T00:31:50.589Z,11.53
2022-11-27T00:34:17.506Z,12.07
2022-11-27T00:36:48.030Z,11.57
2022-11-27T00:39:15.419Z,11.77
2022-11-27T00:41:42.441Z,12.43
2022-11-27T00:44:09.344Z,11.57
2022-11-27T00:46:36.420Z,12.13
2022-11-27T00:49:06.109Z,12.23
2022-11-27T00:51:33.208Z,12.90
2022-11-27T00:54:00.181Z,13.40
2022-11-27T00:56:30.321Z,13.07
2022-11-27T00:58:57.347Z,13.17
2022-11-27T01:01:30.602Z,13.40
2022-11-27T01:03:59.453Z,13.73
2022-11-27T01:06:27.546Z,12.20
2022-11-27T01:08:54.832Z,13.33
2022-11-27T01:11:27.356Z,13.03
2022-11-27T01:13:56.521Z,13.20
2022-11-27T01:16:26.546Z,14.50
2022-11-27T01:18:56.382Z,12.60
2022-11-27T01:21:24.327Z,13.07
2022-11-27T01:23:51.469Z,13.17
2022-11-27T01:26:19.204Z,12.20
2022-11-27T01:28:46.499Z,13.47
2022-11-27T01:31:17.012Z,13.30
2022-11-27T01:33:45.357Z,13.47
2022-11-27T01:36:14.754Z,12.97
2022-11-27T01:38:42.436Z,12.00
2022-11-27T01:41:26.073Z,15.27
2022-11-27T01:43:57.187Z,10.67
2022-11-27T01:46:44.176Z,11.30
2022-11-27T01:49:11.088Z,13.73
2022-11-27T01:51:42.236Z,12.37
2022-11-27T01:54:10.626Z,11.97
2022-11-27T01:56:40.256Z,12.83
2022-11-27T01:59:08.120Z,12.50
2022-11-27T02:01:35.184Z,10.70
2022-11-27T02:04:02.817Z,12.57
2022-11-27T02:06:29.971Z,12.80
2022-11-27T02:08:57.149Z,13.50
2022-11-27T02:11:29.919Z,12.37
2022-11-27T02:14:18.821Z,11.23
2022-11-27T02:16:48.249Z,13.00
2022-11-27T02:19:58.002Z,11.43
2022-11-27T02:22:46.868Z,11.80
2022-11-27T02:25:41.003Z,13.87
2022-11-27T02:28:34.097Z,11.20
2022-11-27T02:31:10.306Z,12.63
2022-11-27T02:33:43.455Z,9.40
2022-11-27T02:36:15.299Z,10.07
2022-11-27T02:38:48.058Z,11.70
2022-11-27T02:41:22.842Z,10.67
2022-11-27T02:43:52.351Z,11.50
2022-11-27T02:46:20.870Z,11.07
2022-11-27T02:48:51.599Z,9.27
2022-11-27T02:51:24.665Z,10.50
2022-11-27T02:53:59.129Z,8.80
2022-11-27T02:56:30.059Z,9.87
2022-11-27T02:59:01.770Z,9.20
2022-11-27T03:01:33.626Z,11.43
2022-11-27T03:04:07.247Z,9.73
2022-11-27T03:06:41.426Z,10.17
2022-11-27T03:09:37.832Z,10.50
2022-11-27T03:12:07.312Z,7.63
2022-11-27T03:14:37.306Z,9.03
2022-11-27T03:17:22.572Z,11.07
2022-11-27T03:20:07.492Z,8.97
2022-11-27T03:22:34.385Z,9.83
2022-11-27T03:25:01.496Z,11.27
2022-11-27T03:27:37.879Z,9.33
2022-11-27T03:30:08.327Z,8.97
2022-11-27T03:32:35.410Z,9.30
2022-11-27T03:35:03.073Z,9.57
2022-11-27T03:37:30.616Z,8.83
2022-11-27T03:39:57.515Z,8.37
2022-11-27T03:42:46.142Z,9.83
2022-11-27T03:45:31.261Z,9.93
2022-11-27T03:47:58.157Z,9.07
2022-11-27T03:51:07.713Z,10.97
2022-11-27T03:53:55.950Z,8.50
2022-11-27T03:56:43.757Z,9.17
2022-11-27T03:59:18.104Z,9.03
2022-11-27T04:01:45.107Z,9.40
2022-11-27T04:04:12.132Z,8.80
2022-11-27T04:06:39.185Z,9.23
2022-11-27T04:09:06.151Z,7.77
2022-11-27T04:11:33.283Z,9.87
2022-11-27T04:14:00.310Z,8.90
2022-11-27T04:16:27.307Z,10.40
2022-11-27T04:18:54.301Z,8.50
2022-11-27T04:21:21.189Z,9.33
2022-11-27T04:23:48.064Z,8.93
2022-11-27T04:26:15.005Z,8.97
2022-11-27T04:28:41.881Z,8.77
2022-11-27T04:31:09.140Z,9.27
2022-11-27T04:33:36.029Z,9.27
2022-11-27T04:36:03.010Z,9.43
2022-11-27T04:38:29.967Z,9.10
2022-11-27T04:40:58.019Z,9.57
2022-11-27T04:43:25.095Z,8.90
2022-11-27T04:45:52.031Z,8.73
2022-11-27T04:48:18.924Z,9.73
2022-11-27T04:50:45.992Z,8.30
2022-11-27T04:53:12.890Z,9.33
2022-11-27T04:55:39.756Z,7.67
2022-11-27T04:58:06.673Z,6.93
2022-11-27T05:00:33.610Z,7.77
2022-11-27T05:03:00.699Z,9.43
2022-11-27T05:05:27.645Z,8.67
2022-11-27T05:07:54.625Z,8.77
2022-11-27T05:10:21.532Z,8.80
2022-11-27T05:12:48.400Z,9.80
2022-11-27T05:15:15.300Z,11.17
2022-11-27T05:17:42.185Z,10.23
2022-11-27T05:20:09.445Z,10.57
2022-11-27T05:22:36.330Z,9.60
2022-11-27T05:25:03.565Z,10.33
2022-11-27T05:27:30.504Z,10.93
2022-11-27T05:29:57.465Z,10.17
2022-11-27T05:32:24.321Z,8.93
2022-11-27T05:34:51.185Z,11.03
2022-11-27T05:37:19.992Z,9.77
2022-11-27T05:39:47.745Z,12.43
2022-11-27T05:42:14.743Z,11.03
2022-11-27T05:44:41.750Z,9.00
2022-11-27T05:47:08.957Z,12.20
2022-11-27T05:49:35.885Z,9.93
2022-11-27T05:52:02.867Z,10.63
2022-11-27T05:54:29.789Z,8.40
2022-11-27T05:56:56.768Z,9.77
2022-11-27T05:59:23.687Z,11.20
2022-11-27T06:01:50.711Z,10.43
2022-11-27T06:04:17.857Z,9.77
2022-11-27T06:06:44.713Z,11.13
2022-11-27T06:09:13.484Z,10.73
2022-11-27T06:11:41.595Z,10.60
2022-11-27T06:14:10.225Z,8.63
2022-11-27T06:16:37.836Z,10.17
2022-11-27T06:19:04.794Z,8.57
2022-11-27T06:21:31.726Z,10.50
2022-11-27T06:23:59.600Z,11.90
2022-11-27T06:26:29.065Z,10.33
2022-11-27T06:28:57.582Z,11.97
2022-11-27T06:31:26.551Z,10.80
2022-11-27T06:33:54.636Z,10.63
2022-11-27T06:36:23.934Z,11.20
2022-11-27T06:38:51.194Z,11.77
2022-11-27T06:41:20.756Z,10.23
2022-11-27T06:43:47.980Z,11.13
2022-11-27T06:46:17.532Z,12.07
2022-11-27T06:48:46.160Z,10.20
2022-11-27T06:51:16.220Z,10.20
2022-11-27T06:53:43.636Z,10.40
2022-11-27T06:56:15.524Z,10.73
2022-11-27T06:58:43.362Z,11.60
2022-11-27T07:01:13.132Z,8.93
2022-11-27T07:03:40.574Z,10.27
2022-11-27T07:06:09.811Z,10.07
2022-11-27T07:08:37.563Z,9.03
2022-11-27T07:11:06.481Z,10.50
2022-11-27T07:13:33.964Z,9.03
2022-11-27T07:16:06.042Z,9.57
2022-11-27T07:18:38.677Z,11.43
2022-11-27T07:21:05.904Z,9.43
2022-11-27T07:23:33.134Z,9.13
2022-11-27T07:26:08.805Z,8.53
2022-11-27T07:28:36.407Z,8.97
2022-11-27T07:31:04.000Z,8.90
2022-11-27T07:33:31.103Z,10.57
2022-11-27T07:36:06.879Z,9.47
2022-11-27T07:38:34.168Z,10.23
2022-11-27T07:41:05.195Z,11.13
2022-11-27T07:43:33.356Z,11.33
2022-11-27T07:46:04.999Z,8.07
2022-11-27T07:48:32.603Z,10.23
2022-11-27T07:50:59.904Z,10.10
2022-11-27T07:53:26.797Z,11.07
2022-11-27T07:55:53.692Z,11.43
2022-11-27T07:58:20.594Z,11.13
2022-11-27T08:00:48.542Z,9.87
2022-11-27T08:03:16.747Z,11.80
2022-11-27T08:05:43.781Z,12.23
2022-11-27T08:08:10.795Z,10.27
2022-11-27T08:10:38.969Z,11.67
2022-11-27T08:13:06.733Z,12.20
2022-11-27T08:15:33.870Z,11.17
2022-11-27T08:18:01.058Z,11.10
2022-11-27T08:20:28.106Z,11.00
2022-11-27T08:23:01.207Z,10.83
2022-11-27T08:25:29.783Z,10.70
2022-11-27T08:27:56.822Z,12.10
2022-11-27T08:30:24.058Z,10.83
2022-11-27T08:32:51.094Z,13.33
2022-11-27T08:35:18.100Z,10.47
2022-11-27T08:37:45.369Z,13.47
2022-11-27T08:40:12.447Z,13.03
2022-11-27T08:42:39.709Z,13.80
2022-11-27T08:45:06.993Z,12.27
2022-11-27T08:47:34.530Z,9.57
2022-11-27T08:50:01.388Z,11.60
2022-11-27T08:52:28.533Z,11.57
2022-11-27T08:54:57.746Z,11.03
2022-11-27T08:57:25.245Z,11.20
2022-11-27T08:59:52.263Z,13.50
2022-11-27T09:02:19.148Z,9.83
2022-11-27T09:04:46.151Z,10.57
2022-11-27T09:07:15.520Z,10.50
2022-11-27T09:09:42.715Z,15.47
2022-11-27T09:12:09.863Z,10.83
2022-11-27T09:14:36.992Z,9.80
2022-11-27T09:17:03.931Z,11.70
2022-11-27T09:19:30.965Z,10.20
2022-11-27T09:21:57.903Z,12.70
2022-11-27T09:24:26.282Z,11.03
2022-11-27T09:26:53.457Z,9.40
2022-11-27T09:29:20.484Z,11.07
2022-11-27T09:31:47.508Z,11.93
2022-11-27T09:34:14.995Z,9.67
2022-11-27T09:36:42.023Z,10.60
2022-11-27T09:39:09.005Z,9.73
2022-11-27T09:41:50.368Z,10.70
2022-11-27T09:44:43.283Z,12.03
2022-11-27T09:47:41.996Z,13.10
2022-11-27T09:50:19.207Z,13.80
2022-11-27T09:55:23.903Z,11.10
2022-11-27T09:58:07.656Z,11.10
2022-11-27T10:00:34.547Z,11.33
2022-11-27T10:03:01.649Z,13.43
2022-11-27T10:06:06.134Z,11.97
2022-11-27T10:08:57.366Z,12.67
2022-11-27T10:11:42.251Z,10.57
2022-11-27T10:14:21.327Z,13.03
2022-11-27T10:17:00.590Z,12.73
2022-11-27T10:19:52.045Z,12.33
2022-11-27T10:22:27.123Z,11.87
2022-11-27T10:25:15.360Z,12.87
2022-11-27T10:27:46.826Z,13.40
2022-11-27T10:30:18.160Z,13.77
2022-11-27T10:32:54.987Z,15.50
2022-11-27T10:35:25.411Z,13.53
2022-11-27T10:37:59.788Z,15.37
2022-11-27T10:40:49.895Z,14.45
2022-11-27T10:46:02.948Z,13.17
2022-11-27T10:48:30.157Z,12.73
2022-11-27T10:50:57.402Z,15.97
2022-11-27T10:53:31.988Z,18.03
2022-11-27T10:56:19.904Z,12.73
2022-11-27T10:59:07.222Z,15.63
2022-11-27T11:01:48.702Z,14.50
2022-11-27T11:04:37.577Z,16.77
2022-11-27T11:07:24.077Z,14.47
2022-11-27T11:09:52.633Z,16.63
2022-11-27T11:12:22.166Z,14.53
2022-11-27T11:14:55.504Z,14.87
2022-11-27T11:17:26.806Z,14.83
2022-11-27T11:19:54.955Z,15.73
2022-11-27T11:22:22.587Z,13.17
2022-11-27T11:24:52.125Z,15.50
2022-11-27T11:27:29.847Z,14.60
2022-11-27T11:30:00.807Z,14.57
2022-11-27T11:32:37.721Z,13.63
2022-11-27T11:35:34.880Z,15.23
2022-11-27T11:38:05.410Z,15.30
2022-11-27T11:40:35.990Z,11.37
2022-11-27T11:43:07.372Z,13.63
2022-11-27T11:45:35.240Z,12.00
2022-11-27T11:48:20.656Z,12.23
2022-11-27T11:50:55.853Z,13.03
2022-11-27T11:53:22.699Z,15.53
2022-11-27T11:56:21.293Z,11.87
2022-11-27T11:59:19.382Z,12.43
2022-11-27T12:04:13.643Z,16.27
2022-11-27T12:07:22.614Z,13.10
2022-11-27T12:09:55.563Z,12.70
2022-11-27T12:12:40.745Z,12.27
2022-11-27T12:15:13.545Z,11.80
2022-11-27T12:17:51.189Z,11.43
2022-11-27T12:20:24.489Z,11.97
2022-11-27T12:23:22.566Z,13.87
2022-11-27T12:26:18.376Z,13.25
2022-11-27T12:29:12.125Z,13.10
2022-11-27T12:31:52.349Z,11.20
2022-11-27T12:34:58.926Z,12.97
2022-11-27T12:37:35.214Z,14.77
2022-11-27T12:40:41.103Z,14.60
2022-11-27T12:43:25.820Z,15.27
2022-11-27T12:46:02.622Z,17.87
2022-11-27T12:48:36.806Z,20.95
2022-11-27T12:51:08.945Z,15.47
2022-11-27T12:53:55.993Z,15.13
2022-11-27T12:56:44.360Z,15.23
2022-11-27T12:59:34.132Z,15.07
2022-11-27T13:02:23.880Z,18.43
2022-11-27T13:05:02.458Z,15.00
2022-11-27T13:08:13.229Z,14.27
2022-11-27T13:10:55.417Z,15.53
2022-11-27T13:13:24.964Z,15.53
2022-11-27T13:15:58.157Z,16.17
2022-11-27T13:18:50.559Z,16.57
2022-11-27T13:21:39.118Z,16.37
2022-11-27T13:24:06.523Z,14.80
2022-11-27T13:26:45.044Z,13.33
2022-11-27T13:29:14.735Z,17.57
2022-11-27T13:31:44.628Z,16.03
2022-11-27T13:34:21.909Z,18.03
2022-11-27T13:37:06.124Z,15.17
2022-11-27T13:39:42.270Z,19.37
2022-11-27T13:42:17.069Z,14.70
2022-11-27T13:44:53.735Z,16.70
2022-11-27T13:47:23.271Z,18.30
2022-11-27T13:50:06.422Z,17.43
2022-11-27T13:52:34.466Z,19.77
2022-11-27T13:55:05.481Z,17.60
2022-11-27T13:57:34.722Z,16.77
2022-11-27T14:00:13.892Z,17.20
2022-11-27T14:02:52.290Z,15.90
2022-11-27T14:05:22.489Z,14.07
2022-11-27T14:07:56.408Z,19.20
2022-11-27T14:10:26.946Z,16.87
2022-11-27T14:12:59.945Z,16.60
2022-11-27T14:15:28.571Z,17.17
2022-11-27T14:18:20.788Z,15.73
2022-11-27T14:21:00.529Z,20.03
2022-11-27T14:23:49.505Z,19.30
2022-11-27T14:26:19.047Z,16.67
2022-11-27T14:28:50.947Z,19.53
2022-11-27T14:31:33.266Z,21.40
2022-11-27T14:34:23.159Z,17.67
2022-11-27T14:36:53.338Z,18.23
2022-11-27T14:39:30.304Z,15.37
2022-11-27T14:44:33.038Z,15.70
2022-11-27T14:47:07.047Z,17.20
2022-11-27T14:49:34.891Z,16.80
2022-11-27T14:52:05.945Z,14.37
2022-11-27T14:54:39.298Z,15.67
2022-11-27T14:57:07.738Z,14.33
2022-11-27T14:59:34.818Z,18.30
2022-11-27T15:02:29.120Z,16.63
2022-11-27T15:05:04.196Z,15.57
2022-11-27T15:07:38.032Z,15.57
2022-11-27T15:10:38.181Z,18.20
2022-11-27T15:13:07.472Z,15.90
2022-11-27T15:15:42.273Z,17.20
2022-11-27T15:18:09.666Z,16.63
2022-11-27T15:20:46.696Z,16.13
2022-11-27T15:26:07.285Z,16.53
2022-11-27T15:28:54.846Z,17.07
2022-11-27T15:31:38.056Z,15.10
2022-11-27T15:34:14.388Z,16.10
2022-11-27T15:37:09.429Z,17.90
2022-11-27T15:39:48.775Z,16.20
2022-11-27T15:42:17.687Z,14.20
2022-11-27T15:44:46.724Z,15.00
2022-11-27T15:47:27.595Z,17.63
2022-11-27T15:49:55.036Z,19.07
2022-11-27T15:52:22.495Z,18.63
2022-11-27T15:54:50.636Z,14.90
2022-11-27T15:57:20.256Z,14.87
2022-11-27T15:59:47.375Z,18.30
2022-11-27T16:02:18.070Z,15.80
2022-11-27T16:04:45.512Z,20.57
2022-11-27T16:07:14.077Z,16.37
2022-11-27T16:09:41.123Z,17.30
2022-11-27T16:12:08.227Z,15.47
2022-11-27T16:14:35.449Z,17.00
2022-11-27T16:17:02.565Z,15.57
2022-11-27T16:19:30.136Z,17.77
2022-11-27T16:21:57.344Z,17.10
2022-11-27T16:24:24.430Z,18.20
2022-11-27T16:26:51.615Z,17.90
2022-11-27T16:29:18.607Z,18.33
2022-11-27T16:31:45.769Z,16.47
2022-11-27T16:34:15.554Z,16.67
2022-11-27T16:36:45.967Z,18.33
2022-11-27T16:39:17.354Z,16.00
2022-11-27T16:41:44.687Z,16.70
2022-11-27T16:44:14.328Z,16.73
2022-11-27T16:46:44.675Z,17.30
2022-11-27T16:49:12.751Z,18.53
2022-11-27T16:51:41.751Z,19.13
2022-11-27T16:54:13.297Z,17.87
2022-11-27T16:56:43.770Z,18.87
2022-11-27T16:59:13.514Z,16.83
2022-11-27T17:01:42.750Z,18.03
2022-11-27T17:04:16.538Z,17.37
2022-11-27T17:06:43.997Z,17.00
2022-11-27T17:09:11.283Z,19.80
2022-11-27T17:11:42.683Z,19.03
2022-11-27T17:14:10.665Z,20.87
2022-11-27T17:16:42.761Z,15.90
2022-11-27T17:19:14.983Z,19.50
2022-11-27T17:21:43.229Z,18.97
2022-11-27T17:24:16.095Z,19.93
2022-11-27T17:26:48.138Z,21.27
2022-11-27T17:29:19.814Z,18.13
2022-11-27T17:31:47.186Z,17.53
2022-11-27T17:34:15.756Z,20.43
2022-11-27T17:36:45.157Z,18.70
2022-11-27T17:39:15.347Z,21.67
2022-11-27T17:41:45.207Z,21.47
2022-11-27T17:44:12.382Z,22.67
2022-11-27T17:46:40.319Z,22.37
2022-11-27T17:49:08.370Z,21.97
2022-11-27T17:51:36.883Z,19.30
2022-11-27T17:54:05.777Z,22.93
2022-11-27T17:56:34.570Z,20.53
2022-11-27T17:59:02.886Z,20.00
2022-11-27T18:01:31.308Z,22.83
2022-11-27T18:04:01.445Z,24.10
2022-11-27T18:06:31.496Z,22.77
2022-11-27T18:08:59.336Z,20.37
2022-11-27T18:11:30.693Z,21.73
2022-11-27T18:14:03.470Z,26.00
2022-11-27T18:16:38.969Z,19.57
2022-11-27T18:19:09.271Z,18.17
2022-11-27T18:21:37.991Z,19.70
2022-11-27T18:24:23.662Z,17.90
2022-11-27T18:27:10.776Z,19.77
2022-11-27T18:29:41.427Z,19.38
2022-11-27T18:32:09.308Z,20.10
2022-11-27T18:34:36.728Z,23.60
2022-11-27T18:37:04.821Z,21.37
2022-11-27T18:39:32.399Z,22.67
2022-11-27T18:41:59.631Z,20.33
2022-11-27T18:44:27.161Z,21.17
2022-11-27T18:46:55.145Z,20.00
2022-11-27T18:49:24.941Z,20.80
2022-11-27T18:51:54.131Z,20.23
2022-11-27T18:54:22.208Z,22.00
2022-11-27T18:56:49.504Z,22.53
2022-11-27T18:59:18.827Z,22.03
2022-11-27T19:01:46.107Z,23.77
2022-11-27T19:04:13.523Z,19.67
2022-11-27T19:06:44.901Z,20.53
2022-11-27T19:09:13.626Z,21.67
2022-11-27T19:11:41.129Z,18.50
2022-11-27T19:14:09.357Z,19.73
2022-11-27T19:16:47.052Z,19.23
2022-11-27T19:19:53.981Z,19.58
2022-11-27T19:22:07.957Z,20.77
2022-11-27T19:24:35.786Z,21.03
2022-11-27T19:27:03.265Z,19.13
2022-11-27T19:29:30.396Z,19.43
2022-11-27T19:31:59.022Z,20.53
2022-11-27T19:34:26.559Z,23.27
2022-11-27T19:36:53.680Z,23.43
2022-11-27T19:39:20.969Z,26.07
2022-11-27T19:41:49.501Z,20.60
2022-11-27T19:44:17.636Z,20.13
2022-11-27T19:46:46.633Z,25.03
2022-11-27T19:49:18.002Z,21.93
2022-11-27T19:51:46.203Z,19.77
2022-11-27T19:54:17.061Z,20.47
2022-11-27T19:56:45.445Z,21.03
2022-11-27T19:59:13.467Z,18.70
2022-11-27T20:01:42.375Z,21.20
2022-11-27T20:04:15.487Z,22.17
2022-11-27T20:06:44.394Z,20.83
2022-11-27T20:09:11.748Z,23.23
2022-11-27T20:11:39.678Z,21.40
2022-11-27T20:14:07.771Z,23.13
2022-11-27T20:16:36.218Z,22.40
2022-11-27T20:19:05.762Z,22.30
2022-11-27T20:21:36.597Z,22.57
2022-11-27T20:24:03.883Z,22.37
2022-11-27T20:26:31.221Z,19.60
2022-11-27T20:28:59.896Z,21.07
2022-11-27T20:31:33.378Z,21.73
2022-11-27T20:34:03.244Z,26.27
2022-11-27T20:36:34.158Z,25.17
2022-11-27T20:39:02.442Z,23.63
2022-11-27T20:41:30.575Z,23.90
2022-11-27T20:44:00.027Z,25.50
2022-11-27T20:46:28.939Z,26.23
2022-11-27T20:48:56.180Z,24.77
2022-11-27T20:51:28.635Z,23.33
2022-11-27T20:53:58.143Z,26.87
2022-11-27T20:56:25.662Z,21.83
2022-11-27T20:58:53.680Z,23.97
2022-11-27T21:01:26.244Z,27.87
2022-11-27T21:03:55.345Z,26.60
2022-11-27T21:06:26.374Z,24.30
2022-11-27T21:08:54.631Z,24.57
2022-11-27T21:11:25.338Z,24.73
2022-11-27T21:13:57.916Z,27.17
2022-11-27T21:16:27.422Z,27.30
2022-11-27T21:19:01.310Z,28.13
2022-11-27T21:21:29.516Z,24.73
2022-11-27T21:23:56.992Z,24.97
2022-11-27T21:26:24.942Z,25.40
2022-11-27T21:28:53.341Z,25.03
2022-11-27T21:31:25.806Z,23.57
2022-11-27T21:33:54.664Z,24.30
2022-11-27T21:36:26.215Z,30.83
2022-11-27T21:38:53.742Z,25.27
2022-11-27T21:41:20.977Z,21.20
2022-11-27T21:43:49.378Z,24.77
2022-11-27T21:46:19.233Z,25.17
2022-11-27T21:48:47.837Z,26.50
2022-11-27T21:51:16.273Z,23.57
2022-11-27T21:53:46.003Z,25.57
2022-11-27T21:56:15.713Z,28.27
2022-11-27T21:58:43.378Z,23.50
2022-11-27T22:01:14.421Z,27.53
2022-11-27T22:03:42.990Z,25.73
2022-11-27T22:06:16.014Z,25.03
2022-11-27T22:08:45.112Z,20.90
2022-11-27T22:11:16.198Z,22.57
2022-11-27T22:13:43.659Z,24.87
2022-11-27T22:16:18.371Z,25.77
2022-11-27T22:18:46.300Z,28.30
2022-11-27T22:21:14.481Z,26.33
2022-11-27T22:23:41.950Z,24.37
2022-11-27T22:26:12.922Z,24.57
2022-11-27T22:28:40.570Z,24.97
2022-11-27T22:31:11.020Z,21.67
2022-11-27T22:33:41.245Z,25.23
2022-11-27T22:36:16.827Z,25.87
2022-11-27T22:38:45.736Z,26.73
2022-11-27T22:41:15.068Z,22.47
2022-11-27T22:43:42.564Z,25.67
2022-11-27T22:46:33.837Z,24.20
2022-11-27T22:49:03.176Z,28.93
2022-11-27T22:51:32.096Z,27.60
2022-11-27T22:53:59.161Z,26.60
2022-11-27T22:56:26.366Z,28.57
2022-11-27T22:59:11.389Z,25.20
2022-11-27T23:01:40.990Z,30.52
2022-11-27T23:04:08.354Z,28.80
2022-11-27T23:06:36.101Z,29.00
2022-11-27T23:09:03.410Z,28.17
2022-11-27T23:11:31.436Z,25.97
2022-11-27T23:13:59.668Z,28.10
2022-11-27T23:16:26.911Z,24.73
2022-11-27T23:18:53.834Z,31.60
2022-11-27T23:21:23.109Z,27.27
2022-11-27T23:23:50.802Z,26.20
2022-11-27T23:26:20.251Z,29.97
2022-11-27T23:28:48.997Z,27.13
2022-11-27T23:31:29.952Z,27.17
2022-11-27T23:33:59.206Z,23.20
2022-11-27T23:36:26.170Z,27.23
2022-11-27T23:38:53.290Z,27.47
2022-11-27T23:41:25.076Z,27.93
2022-11-27T23:43:53.237Z,24.57
2022-11-27T23:46:22.217Z,28.13
2022-11-27T23:48:49.427Z,27.00
2022-11-27T23:51:19.462Z,22.37
2022-11-27T23:53:47.383Z,27.90
2022-11-27T23:56:19.998Z,27.03
2022-11-27T23:58:47.893Z,25.03
